JAH weather

Hosteria San Huberto Airport
Junin de Los Andes, Neuquén Province, Argentina

Public forecast

Using degrees Celsius for public forecast. Weather courtesy of forecast.io.

METAR (pilot weather report)

Report is more than 6 hours old.

Closest report is Aviador C. Campos Airport, 22.4 nm (41.4 km) S. Retrieved 2019/03/23 23:31 UTC (2 days ago):

SAZY 232331Z 25021G31KT CAVOK 14/04 Q1019

TAF (pilot weather forecast)

Forecast is more than 12 hours old.

Closest forecast is Aviador C. Campos Airport, 22.4 nm (41.4 km) S. Retrieved 2019/03/25 06:06 UTC (1 day ago):

TAF SAZY 250500Z 2506/2606 09005KT CAVOK TX22/2519Z TN07/2510Z BECMG 2508/2510 14010KT SCT035 BECMG 2515/2518 09010KT TEMPO 2520/2522 07015KT BECMG 2600/2603 11010KT SCT030